Time;durP1;ratioP1;P1;durP2;ratioP2;P2;SDS_P1;SDS_P2;PMS_P1;PMS_P2;Temp;Humidity;BMP_temperature;BMP_pressure;BME280_temperature;BME280_humidity;BME280_pressure;Samples;Min_cycle;Max_cycle;Signal;HPM_P1;HPM_P2
2022/03/14 00:00:35;;;;;;;36.17;22.58;;;;;;;-0.56;100.00;102585.58;1797674;78;21857;-92
2022/03/14 00:03:05;;;;;;;37.63;23.35;;;;;;;-0.55;100.00;102589.02;1790137;79;20990;-92
2022/03/14 00:05:32;;;;;;;41.85;24.07;;;;;;;-0.54;100.00;102589.45;1766227;79;21092;-91
2022/03/14 00:08:01;;;;;;;40.38;24.02;;;;;;;-0.54;100.00;102587.73;1748727;81;21037;-91
2022/03/14 00:10:28;;;;;;;38.25;23.50;;;;;;;-0.52;100.00;102589.87;1766013;81;21578;-94
2022/03/14 00:12:56;;;;;;;41.63;23.87;;;;;;;-0.50;100.00;102584.75;1766239;79;21257;-92
2022/03/14 00:15:30;;;;;;;40.92;23.83;;;;;;;-0.48;100.00;102583.06;1766450;80;21558;-94
2022/03/14 00:17:56;;;;;;;38.98;22.50;;;;;;;-0.48;100.00;102581.78;1763668;81;22045;-91
2022/03/14 00:20:24;;;;;;;43.15;25.95;;;;;;;-0.47;100.00;102582.22;1770849;78;21162;-92
2022/03/14 00:22:52;;;;;;;42.05;23.67;;;;;;;-0.49;100.00;102589.02;1797693;79;21000;-91
2022/03/14 00:25:20;;;;;;;38.88;22.07;;;;;;;-0.49;100.00;102588.62;1797546;79;21879;-92
2022/03/14 00:27:46;;;;;;;37.95;22.87;;;;;;;-0.50;100.00;102586.03;1779095;79;21036;-92
2022/03/14 00:30:15;;;;;;;40.30;23.47;;;;;;;-0.52;100.00;102583.48;1797813;79;21012;-94
2022/03/14 00:32:42;;;;;;;36.80;21.48;;;;;;;-0.52;100.00;102579.64;1797572;78;21462;-91
2022/03/14 00:35:11;;;;;;;34.90;22.20;;;;;;;-0.52;100.00;102585.20;1797423;79;21033;-93
2022/03/14 00:37:39;;;;;;;36.30;21.73;;;;;;;-0.53;100.00;102581.77;1797577;79;21146;-91
2022/03/14 00:40:08;;;;;;;34.70;20.30;;;;;;;-0.54;100.00;102584.33;1797996;79;20957;-91
2022/03/14 00:42:39;;;;;;;35.80;19.45;;;;;;;-0.54;100.00;102581.77;1797644;79;21620;-91
2022/03/14 00:45:07;;;;;;;31.82;19.70;;;;;;;-0.56;100.00;102584.30;1779690;79;21029;-90
2022/03/14 00:47:34;;;;;;;33.75;20.88;;;;;;;-0.56;100.00;102584.74;1766033;79;21017;-91
2022/03/14 00:50:01;;;;;;;44.65;22.02;;;;;;;-0.60;100.00;102588.16;1765949;79;21206;-92
2022/03/14 00:52:29;;;;;;;36.83;21.15;;;;;;;-0.61;100.00;102595.40;1765789;79;21429;-92
2022/03/14 00:54:56;;;;;;;39.40;22.02;;;;;;;-0.61;100.00;102593.68;1748752;81;21147;-91
2022/03/14 00:57:23;;;;;;;42.43;22.42;;;;;;;-0.64;100.00;102593.66;1748672;81;21646;-91
2022/03/14 00:59:50;;;;;;;38.48;20.92;;;;;;;-0.67;100.00;102594.51;1766154;81;21570;-91
2022/03/14 01:02:18;;;;;;;40.95;20.72;;;;;;;-0.70;100.00;102594.52;1766002;81;21193;-92
2022/03/14 01:04:45;;;;;;;41.48;21.90;;;;;;;-0.72;100.00;102597.48;1781999;79;20986;-92
2022/03/14 01:07:11;;;;;;;36.90;20.50;;;;;;;-0.73;100.00;102600.05;1797572;78;21033;-91
2022/03/14 01:09:39;;;;;;;39.83;21.07;;;;;;;-0.76;100.00;102600.86;1776956;79;21604;-91
2022/03/14 01:12:09;;;;;;;35.55;20.43;;;;;;;-0.76;100.00;102597.03;1765815;80;21550;-92
2022/03/14 01:14:37;;;;;;;40.55;21.33;;;;;;;-0.76;100.00;102597.47;1766100;79;21664;-90
2022/03/14 01:17:04;;;;;;;35.63;21.10;;;;;;;-0.77;100.00;102603.02;1765671;79;21092;-89
2022/03/14 01:19:33;;;;;;;34.27;20.08;;;;;;;-0.80;100.00;102599.16;1766351;80;21672;-90
2022/03/14 01:22:10;;;;;;;34.27;20.82;;;;;;;-0.79;100.00;102594.47;1785340;79;21543;-90
2022/03/14 01:24:38;;;;;;;35.98;21.42;;;;;;;-0.79;100.00;102595.75;1791471;79;21105;-89
2022/03/14 01:27:06;;;;;;;34.78;20.25;;;;;;;-0.76;100.00;102598.30;1765990;79;21266;-89
2022/03/14 01:29:34;;;;;;;41.28;20.65;;;;;;;-0.73;100.00;102607.72;1765559;79;21034;-92
2022/03/14 01:32:03;;;;;;;32.42;20.05;;;;;;;-0.73;100.00;102607.28;1766007;81;21041;-91
2022/03/14 01:34:31;;;;;;;36.30;21.60;;;;;;;-0.72;100.00;102607.72;1765847;80;20990;-92
2022/03/14 01:36:57;;;;;;;37.73;20.72;;;;;;;-0.71;100.00;102610.72;1766215;81;21064;-93
2022/03/14 01:39:25;;;;;;;38.38;22.02;;;;;;;-0.69;100.00;102612.86;1766488;81;21427;-93
2022/03/14 01:41:57;;;;;;;35.28;20.68;;;;;;;-0.69;100.00;102615.42;1765906;81;21108;-93
2022/03/14 01:44:21;;;;;;;34.43;20.65;;;;;;;-0.67;100.00;102619.25;1764996;79;21041;-91
2022/03/14 01:46:49;;;;;;;34.38;19.98;;;;;;;-0.67;100.00;102622.66;1765968;79;21062;-91
2022/03/14 01:49:16;;;;;;;31.73;19.90;;;;;;;-0.67;100.00;102621.81;1765771;81;21068;-90
2022/03/14 01:51:52;;;;;;;32.13;18.02;;;;;;;-0.67;100.00;102623.94;1763331;80;21286;-90
2022/03/14 01:54:17;;;;;;;32.35;18.15;;;;;;;-0.67;100.00;102623.09;1767365;80;21475;-91
2022/03/14 01:56:46;;;;;;;30.50;18.48;;;;;;;-0.68;100.00;102622.22;1765915;80;21045;-92
2022/03/14 01:59:14;;;;;;;29.45;17.05;;;;;;;-0.69;100.00;102624.78;1766135;80;21037;-91
2022/03/14 02:01:41;;;;;;;31.73;18.98;;;;;;;-0.70;100.00;102626.91;1766139;80;21024;-94
2022/03/14 02:04:08;;;;;;;38.45;19.70;;;;;;;-0.73;100.00;102628.20;1766359;81;21104;-93
2022/03/14 02:06:35;;;;;;;39.23;20.45;;;;;;;-0.76;100.00;102629.01;1765994;81;21045;-92
2022/03/14 02:09:04;;;;;;;34.53;19.15;;;;;;;-0.75;100.00;102637.55;1765941;81;21049;-91
2022/03/14 02:11:32;;;;;;;32.08;19.60;;;;;;;-0.76;100.00;102634.56;1765630;81;21045;-91
2022/03/14 02:14:01;;;;;;;29.12;17.40;;;;;;;-0.77;100.00;102638.84;1766052;80;21010;-92
2022/03/14 02:16:30;;;;;;;30.90;17.20;;;;;;;-0.80;100.00;102637.09;1765970;80;21543;-90
2022/03/14 02:19:01;;;;;;;34.55;17.07;;;;;;;-0.81;100.00;102643.49;1748652;81;21603;-91
2022/03/14 02:21:28;;;;;;;30.25;17.77;;;;;;;-0.82;100.00;102646.89;1789364;79;21001;-89
2022/03/14 02:23:55;;;;;;;29.15;18.02;;;;;;;-0.84;100.00;102641.78;1797312;78;21037;-91
2022/03/14 02:26:21;;;;;;;37.50;19.70;;;;;;;-0.88;100.00;102643.87;1797496;79;21041;-91
2022/03/14 02:28:48;;;;;;;30.15;18.90;;;;;;;-0.89;100.00;102645.16;1779794;79;21214;-92
2022/03/14 02:31:15;;;;;;;34.38;18.37;;;;;;;-0.90;100.00;102644.72;1797401;78;20931;-92
2022/03/14 02:33:42;;;;;;;33.33;17.17;;;;;;;-0.90;100.00;102646.00;1798035;78;21049;-91
2022/03/14 02:36:08;;;;;;;25.88;15.58;;;;;;;-0.91;100.00;102648.12;1771023;79;21002;-90
2022/03/14 02:38:35;;;;;;;25.68;15.63;;;;;;;-0.91;100.00;102651.55;1797530;78;21116;-91
2022/03/14 02:41:03;;;;;;;26.02;16.60;;;;;;;-0.91;100.00;102654.11;1797230;79;21894;-90
2022/03/14 02:43:30;;;;;;;26.00;16.15;;;;;;;-0.92;100.00;102648.99;1797305;79;21018;-90
2022/03/14 02:45:58;;;;;;;24.80;15.60;;;;;;;-0.94;100.00;102648.13;1778842;79;21045;-90
2022/03/14 02:48:26;;;;;;;24.50;15.18;;;;;;;-0.96;100.00;102653.20;1797365;79;21057;-90
2022/03/14 02:50:55;;;;;;;23.75;14.18;;;;;;;-0.96;100.00;102660.87;1794243;79;21064;-90
2022/03/14 02:53:22;;;;;;;24.00;14.45;;;;;;;-0.95;100.00;102656.20;1797150;78;21500;-91
2022/03/14 02:55:49;;;;;;;28.42;14.90;;;;;;;-0.96;100.00;102657.91;1797548;78;21057;-90
2022/03/14 02:58:17;;;;;;;26.55;15.10;;;;;;;-0.93;100.00;102656.23;1779889;79;21002;-92
2022/03/14 03:00:46;;;;;;;31.65;15.95;;;;;;;-0.92;100.00;102655.39;1796890;79;21029;-93
2022/03/14 03:03:14;;;;;;;23.80;14.45;;;;;;;-0.92;100.00;102654.95;1797174;79;21013;-92
2022/03/14 03:05:43;;;;;;;29.92;15.63;;;;;;;-0.92;100.00;102654.95;1797366;79;21289;-92
2022/03/14 03:08:11;;;;;;;28.23;15.18;;;;;;;-0.93;100.00;102654.52;1797486;79;21049;-93
2022/03/14 03:10:41;;;;;;;27.22;14.20;;;;;;;-0.95;100.00;102649.80;1792782;78;20997;-93
2022/03/14 03:13:14;;;;;;;23.57;14.28;;;;;;;-0.97;100.00;102645.97;1766044;79;21553;-93
2022/03/14 03:15:42;;;;;;;23.07;14.95;;;;;;;-1.00;100.00;102642.10;1764244;81;21006;-92
2022/03/14 03:18:09;;;;;;;29.30;15.93;;;;;;;-1.00;100.00;102648.94;1766161;81;21625;-90
2022/03/14 03:20:38;;;;;;;27.13;14.43;;;;;;;-1.04;100.00;102648.06;1766468;81;21049;-90
2022/03/14 03:23:08;;;;;;;24.75;14.95;;;;;;;-1.04;100.00;102654.45;1792149;79;21075;-90
2022/03/14 03:25:35;;;;;;;27.67;15.95;;;;;;;-1.06;100.00;102656.14;1797231;79;21032;-90
2022/03/14 03:28:02;;;;;;;21.25;13.88;;;;;;;-1.06;100.00;102656.14;1797411;79;21542;-92
2022/03/14 03:30:29;;;;;;;31.30;17.62;;;;;;;-1.05;100.00;102657.02;1797273;78;21250;-90
2022/03/14 03:32:56;;;;;;;21.25;14.10;;;;;;;-1.06;100.00;102655.30;1797353;79;20996;-92
2022/03/14 03:35:25;;;;;;;25.60;13.48;;;;;;;-1.06;100.00;102657.42;1797618;79;21092;-91
2022/03/14 03:37:52;;;;;;;23.30;14.30;;;;;;;-1.08;100.00;102646.31;1797616;78;20978;-91
2022/03/14 03:40:19;;;;;;;21.37;14.10;;;;;;;-1.09;100.00;102652.30;1797545;79;21063;-90
2022/03/14 03:42:48;;;;;;;23.65;14.47;;;;;;;-1.11;100.00;102654.83;1776011;79;21490;-90
2022/03/14 03:45:17;;;;;;;20.48;13.05;;;;;;;-1.14;100.00;102650.99;1797678;79;20993;-90
2022/03/14 03:47:45;;;;;;;18.35;12.88;;;;;;;-1.15;100.00;102654.80;1779743;79;21595;-89
2022/03/14 03:50:11;;;;;;;24.27;16.70;;;;;;;-1.16;100.00;102655.67;1797488;79;20997;-90
2022/03/14 03:52:39;;;;;;;22.95;13.85;;;;;;;-1.17;100.00;102660.34;1797740;78;21000;-90
2022/03/14 03:55:09;;;;;;;21.80;13.98;;;;;;;-1.19;100.00;102661.59;1800996;78;21294;-91
2022/03/14 03:57:37;;;;;;;17.87;12.45;;;;;;;-1.24;100.00;102672.22;1784133;78;21728;-89
2022/03/14 04:00:09;;;;;;;22.30;13.65;;;;;;;-1.28;100.00;102670.06;1757434;80;21151;-89
2022/03/14 04:02:39;;;;;;;30.68;17.10;;;;;;;-1.33;100.00;102670.87;1751715;80;21037;-90
2022/03/14 04:05:08;;;;;;;22.02;15.10;;;;;;;-1.43;100.00;102674.63;1757423;80;21136;-89
2022/03/14 04:07:40;;;;;;;22.32;14.95;;;;;;;-1.48;100.00;102672.87;1757439;81;21191;-89
2022/03/14 04:10:11;;;;;;;20.85;13.62;;;;;;;-1.53;100.00;102678.38;1767882;80;21504;-90
2022/03/14 04:12:40;;;;;;;23.60;14.20;;;;;;;-1.55;100.00;102682.20;1779105;80;20975;-90
2022/03/14 04:15:11;;;;;;;21.35;13.75;;;;;;;-1.56;100.00;102680.92;1782220;80;21033;-91
2022/03/14 04:17:40;;;;;;;29.05;14.83;;;;;;;-1.57;100.00;102676.22;1781978;80;21042;-89
2022/03/14 04:20:11;;;;;;;19.45;12.80;;;;;;;-1.54;100.00;102679.21;1782200;80;21259;-90
2022/03/14 04:22:40;;;;;;;21.30;13.68;;;;;;;-1.51;100.00;102676.70;1781581;80;21101;-91
2022/03/14 04:25:13;;;;;;;20.97;13.98;;;;;;;-1.51;100.00;102680.53;1757382;80;21011;-90
2022/03/14 04:27:38;;;;;;;24.50;15.13;;;;;;;-1.53;100.00;102684.36;1757026;80;21373;-90
2022/03/14 04:30:07;;;;;;;26.57;15.35;;;;;;;-1.54;100.00;102685.60;1757251;80;21061;-93
2022/03/14 04:32:34;;;;;;;25.68;15.80;;;;;;;-1.55;100.00;102689.00;1757291;80;21154;-89
2022/03/14 04:35:02;;;;;;;24.50;15.75;;;;;;;-1.59;100.00;102694.09;1759964;78;21531;-89
2022/03/14 04:37:29;;;;;;;26.25;14.55;;;;;;;-1.57;100.00;102697.09;1757267;80;21026;-89
2022/03/14 04:39:57;;;;;;;22.87;14.60;;;;;;;-1.57;100.00;102698.38;1757136;80;21034;-90
2022/03/14 04:42:25;;;;;;;22.22;15.35;;;;;;;-1.55;100.00;102697.94;1757471;80;21034;-89
2022/03/14 04:44:54;;;;;;;21.50;16.07;;;;;;;-1.52;100.00;102693.71;1757286;80;21258;-90
2022/03/14 04:47:22;;;;;;;26.25;15.93;;;;;;;-1.50;100.00;102700.14;1727076;80;38707;-89
2022/03/14 04:49:48;;;;;;;25.72;15.08;;;;;;;-1.47;100.00;102696.31;1783090;80;20999;-92
2022/03/14 04:52:15;;;;;;;24.35;15.40;;;;;;;-1.45;100.00;102698.46;1788119;78;21009;-91
2022/03/14 04:54:44;;;;;;;23.40;16.10;;;;;;;-1.45;100.00;102700.61;1792735;79;21050;-91
2022/03/14 04:57:11;;;;;;;26.62;17.32;;;;;;;-1.46;100.00;102694.19;1796786;79;21284;-92
2022/03/14 04:59:38;;;;;;;28.60;17.35;;;;;;;-1.49;100.00;102701.41;1797304;78;21240;-90
2022/03/14 05:02:06;;;;;;;28.32;17.25;;;;;;;-1.50;100.00;102704.81;1797153;78;21009;-91
2022/03/14 05:04:38;;;;;;;25.92;16.45;;;;;;;-1.52;100.00;102705.64;1791704;79;21051;-91
2022/03/14 05:07:08;;;;;;;34.85;17.95;;;;;;;-1.51;100.00;102699.70;1790218;78;21036;-92
2022/03/14 05:09:35;;;;;;;32.53;19.23;;;;;;;-1.49;100.00;102698.02;1768158;79;21117;-91
2022/03/14 05:12:02;;;;;;;23.95;16.20;;;;;;;-1.45;100.00;102692.95;1790824;78;21014;-91
2022/03/14 05:14:30;;;;;;;32.10;17.90;;;;;;;-1.40;100.00;102688.28;1812683;77;21080;-92
2022/03/14 05:16:57;;;;;;;26.02;15.78;;;;;;;-1.37;100.00;102687.88;1813512;77;21024;-91
2022/03/14 05:19:24;;;;;;;24.15;15.98;;;;;;;-1.36;100.00;102689.59;1814028;77;21564;-93
2022/03/14 05:21:51;;;;;;;27.07;16.20;;;;;;;-1.34;100.00;102694.31;1813967;77;21110;-92
2022/03/14 05:24:18;;;;;;;23.10;15.40;;;;;;;-1.32;100.00;102698.98;1814087;77;21451;-92
2022/03/14 05:26:47;;;;;;;21.90;14.73;;;;;;;-1.31;100.00;102703.70;1787120;79;21534;-91
2022/03/14 05:29:15;;;;;;;22.55;14.75;;;;;;;-1.30;100.00;102706.25;1787089;77;21008;-90
2022/03/14 05:31:43;;;;;;;21.05;14.25;;;;;;;-1.29;100.00;102704.58;1786461;78;21020;-90
2022/03/14 05:34:09;;;;;;;25.15;13.70;;;;;;;-1.27;100.00;102710.53;1814186;79;21222;-89
2022/03/14 05:36:37;;;;;;;23.90;15.05;;;;;;;-1.27;100.00;102714.37;1774570;77;21047;-94
2022/03/14 05:39:05;;;;;;;22.93;13.25;;;;;;;-1.28;100.00;102717.36;1763422;80;21029;-91
2022/03/14 05:41:32;;;;;;;18.67;13.22;;;;;;;-1.28;100.00;102707.53;1781769;79;21044;-90
2022/03/14 05:44:02;;;;;;;19.70;13.08;;;;;;;-1.25;100.00;102711.84;1785176;78;21063;-92
2022/03/14 05:46:35;;;;;;;21.68;12.70;;;;;;;-1.21;100.00;102714.84;1803214;77;21245;-91
2022/03/14 05:49:04;;;;;;;20.43;12.40;;;;;;;-1.19;100.00;102713.16;1809190;77;21460;-92
2022/03/14 05:51:37;;;;;;;16.87;10.80;;;;;;;-1.17;100.00;102716.16;1809970;77;21538;-91
2022/03/14 05:54:05;;;;;;;14.05;10.18;;;;;;;-1.15;100.00;102717.44;1797994;78;21557;-90
2022/03/14 05:56:32;;;;;;;13.03;10.15;;;;;;;-1.14;100.00;102726.42;1786732;78;20980;-91
2022/03/14 05:59:00;;;;;;;13.98;9.50;;;;;;;-1.10;100.00;102723.47;1766171;80;21272;-91
2022/03/14 06:01:27;;;;;;;12.30;9.58;;;;;;;-1.06;100.00;102718.80;1790471;80;21643;-91
2022/03/14 06:03:54;;;;;;;15.13;10.35;;;;;;;-0.99;100.00;102722.27;1790694;78;21399;-89
2022/03/14 06:06:21;;;;;;;13.18;9.53;;;;;;;-0.97;100.00;102725.26;1801219;78;21036;-91
2022/03/14 06:08:48;;;;;;;12.53;8.93;;;;;;;-0.95;100.00;102721.42;1806316;77;21557;-91
2022/03/14 06:11:15;;;;;;;12.70;9.45;;;;;;;-0.94;100.00;102727.41;1769995;80;21183;-93
2022/03/14 06:13:43;;;;;;;17.37;12.37;;;;;;;-0.94;100.00;102727.41;1773888;80;21067;-85
2022/03/14 06:16:10;;;;;;;19.70;11.28;;;;;;;-0.91;100.00;102719.34;1778098;80;21051;-84
2022/03/14 06:18:38;;;;;;;17.15;9.40;;;;;;;-0.82;100.00;102712.13;1778252;80;21011;-94
2022/03/14 06:21:07;;;;;;;12.18;9.03;;;;;;;-0.74;100.00;102718.16;1778093;80;21609;-89
2022/03/14 06:23:36;;;;;;;;;;;;;;;-0.74;100.00;102712.19;1773212;80;22888;-89
2022/03/14 06:26:03;;;;;;;12.00;8.98;;;;;;;-0.76;100.00;102705.77;1775290;80;20431;-90
2022/03/14 06:28:31;;;;;;;12.35;8.25;;;;;;;-0.77;100.00;102700.65;1772396;80;21056;-94
2022/03/14 06:30:58;;;;;;;11.73;9.48;;;;;;;-0.76;100.00;102704.92;1778375;80;21535;-91
2022/03/14 06:33:25;;;;;;;15.35;9.60;;;;;;;-0.76;100.00;102703.20;1772119;80;21107;-88
2022/03/14 06:35:55;;;;;;;11.90;9.00;;;;;;;-0.76;100.00;102708.33;1758911;80;21164;-90
2022/03/14 06:38:23;;;;;;;15.13;9.68;;;;;;;-0.69;100.00;102707.95;1756272;80;21471;-88
2022/03/14 06:40:50;;;;;;;11.48;9.05;;;;;;;-0.68;100.00;102707.95;1806110;78;21604;-90
2022/03/14 06:43:17;;;;;;;16.02;12.23;;;;;;;-0.70;100.00;102702.39;1817729;78;21097;-95
2022/03/14 06:45:45;;;;;;;13.38;9.35;;;;;;;-0.71;100.00;102702.83;1817715;78;21029;-92
2022/03/14 06:48:12;;;;;;;13.98;8.15;;;;;;;-0.67;100.00;102705.82;1799990;78;21217;-92
2022/03/14 06:50:41;;;;;;;12.80;8.60;;;;;;;-0.65;100.00;102702.02;1804952;78;20946;-93
2022/03/14 06:53:08;;;;;;;11.22;8.38;;;;;;;-0.66;100.00;102698.58;1814318;78;21457;-95
2022/03/14 06:55:40;;;;;;;11.20;8.30;;;;;;;-0.62;100.00;102699.45;1808308;78;21509;-87
2022/03/14 06:58:07;;;;;;;14.90;8.85;;;;;;;-0.59;100.00;102703.31;1818682;78;21545;-88
2022/03/14 07:00:35;;;;;;;12.15;7.97;;;;;;;-0.53;100.00;102710.17;1785844;78;21637;-86
2022/03/14 07:03:02;;;;;;;12.95;8.43;;;;;;;-0.51;100.00;102713.58;1784602;78;21010;-86
2022/03/14 07:05:29;;;;;;;10.80;8.93;;;;;;;-0.51;100.00;102710.61;1796750;78;21032;-88
2022/03/14 07:07:56;;;;;;;11.70;7.92;;;;;;;-0.48;100.00;102709.77;1772905;78;21009;-86
2022/03/14 07:10:26;;;;;;;10.40;8.08;;;;;;;-0.39;100.00;102711.09;1765881;78;21097;-88
2022/03/14 07:12:54;;;;;;;11.97;8.08;;;;;;;-0.30;100.00;102711.98;1778971;78;21164;-86
2022/03/14 07:15:25;;;;;;;12.65;8.08;;;;;;;-0.21;100.00;102705.62;1786187;80;21621;-87
2022/03/14 07:17:54;;;;;;;10.18;7.22;;;;;;;-0.09;100.00;102701.80;1760386;78;20985;-86
2022/03/14 07:20:23;;;;;;;13.28;8.28;;;;;;;0.00;100.00;102711.23;1762341;80;21092;-87
2022/03/14 07:22:59;;;;;;;14.45;10.30;;;;;;;0.08;100.00;102709.96;1761932;80;21056;-86
2022/03/14 07:25:31;;;;;;;12.37;9.15;;;;;;;0.16;100.00;102706.98;1768781;78;21227;-88
2022/03/14 07:28:05;;;;;;;13.05;9.00;;;;;;;0.17;100.00;102712.55;1766450;80;21018;-85
2022/03/14 07:30:32;;;;;;;14.55;7.85;;;;;;;0.05;100.00;102709.53;1794056;78;21064;-89
2022/03/14 07:33:28;;;;;;;;;;;;;;;;;;;;;
2022/03/14 07:35:38;;;;;;;14.47;10.70;;;;;;;-0.22;100.00;102704.74;1775062;79;20994;-87
2022/03/14 07:38:10;;;;;;;11.28;7.85;;;;;;;-0.17;100.00;102699.64;1794149;78;21851;-88
2022/03/14 07:40:37;;;;;;;12.95;8.73;;;;;;;0.06;100.00;102693.31;1790962;80;21014;-87
2022/03/14 07:43:05;;;;;;;10.82;8.18;;;;;;;0.26;100.00;102699.76;1803283;77;21619;-88
2022/03/14 07:45:32;;;;;;;11.30;7.12;;;;;;;0.39;100.00;102702.32;1739502;80;21064;-85
2022/03/14 07:47:59;;;;;;;9.63;7.75;;;;;;;0.41;100.00;102710.88;1773410;80;21002;-86
2022/03/14 07:50:27;;;;;;;13.45;8.65;;;;;;;0.32;100.00;102707.89;1787351;78;21923;-90
2022/03/14 07:52:55;;;;;;;10.93;7.85;;;;;;;0.26;100.00;102703.60;1787157;78;21446;-87
2022/03/14 07:55:25;;;;;;;11.33;8.35;;;;;;;0.35;100.00;102704.47;1766042;78;21057;-88
2022/03/14 07:57:54;;;;;;;9.85;7.85;;;;;;;0.43;100.00;102694.64;1818862;78;21004;-88
2022/03/14 08:00:23;;;;;;;12.03;8.10;;;;;;;0.45;100.00;102707.03;1811463;78;21675;-87
2022/03/14 08:02:50;;;;;;;16.00;8.33;;;;;;;0.53;100.00;102702.34;1757443;79;21669;-89
2022/03/14 08:05:18;;;;;;;11.75;8.00;;;;;;;0.70;100.00;102692.07;1741399;80;21163;-89
2022/03/14 08:07:47;;;;;;;12.73;8.45;;;;;;;0.89;100.00;102696.34;1784089;78;21573;-89
2022/03/14 08:10:18;;;;;;;11.80;8.35;;;;;;;0.93;100.00;102696.75;1779472;78;21064;-87
2022/03/14 08:12:54;;;;;;;11.80;8.15;;;;;;;0.82;100.00;102693.36;1811027;78;21039;-88
2022/03/14 08:15:32;;;;;;;14.58;7.25;;;;;;;0.81;100.00;102693.34;1785029;79;20957;-88
2022/03/14 08:18:03;;;;;;;9.63;7.20;;;;;;;0.87;100.00;102705.75;1790778;79;21049;-89
2022/03/14 08:20:32;;;;;;;11.48;7.87;;;;;;;0.82;92.27;102697.21;1779609;79;21005;-89
2022/03/14 08:23:02;;;;;;;12.50;8.80;;;;;;;0.72;99.48;102701.91;1779840;80;21091;-88
2022/03/14 08:25:36;;;;;;;12.90;9.08;;;;;;;0.78;100.00;102696.77;1800979;77;21014;-88
2022/03/14 08:28:06;;;;;;;11.22;7.37;;;;;;;0.92;100.00;102694.20;1823153;78;21268;-88
2022/03/14 08:30:34;;;;;;;13.48;8.33;;;;;;;1.00;87.66;102706.59;1782638;79;21065;-87
2022/03/14 08:33:01;;;;;;;9.80;6.78;;;;;;;1.01;88.34;102694.19;1762271;80;21148;-88
2022/03/14 08:35:29;;;;;;;16.17;11.28;;;;;;;0.91;87.02;102696.33;1790235;78;21049;-91
2022/03/14 08:37:57;;;;;;;14.83;10.38;;;;;;;0.80;92.66;102687.37;1750012;79;21017;-87
2022/03/14 08:40:27;;;;;;;12.73;8.30;;;;;;;0.82;98.55;102692.49;1790306;78;21419;-88
2022/03/14 08:42:57;;;;;;;11.78;8.35;;;;;;;0.93;97.11;102680.08;1790321;78;21535;-90
2022/03/14 08:45:26;;;;;;;10.40;7.53;;;;;;;1.06;89.62;102690.34;1769312;80;21076;-89
2022/03/14 08:47:54;;;;;;;12.35;8.13;;;;;;;1.05;87.09;102692.47;1808547;78;21059;-90
2022/03/14 08:50:21;;;;;;;12.37;8.68;;;;;;;1.01;91.83;102688.19;1799811;77;21071;-88
2022/03/14 08:52:49;;;;;;;13.65;9.20;;;;;;;1.07;96.00;102686.91;1759399;80;21418;-89
2022/03/14 08:55:17;;;;;;;11.85;7.97;;;;;;;1.21;100.00;102685.58;1811004;78;21022;-90
2022/03/14 08:57:44;;;;;;;16.87;9.33;;;;;;;1.25;100.00;102684.73;1788474;78;21132;-90
2022/03/14 09:00:13;;;;;;;14.58;8.98;;;;;;;1.09;100.00;102691.18;1785683;78;21021;-90
2022/03/14 09:02:42;;;;;;;11.60;8.48;;;;;;;0.90;100.00;102695.49;1777896;78;21071;-91
2022/03/14 09:05:10;;;;;;;15.35;9.60;;;;;;;0.75;100.00;102690.38;1790228;77;21211;-88
2022/03/14 09:07:37;;;;;;;14.68;8.95;;;;;;;0.69;100.00;102692.52;1784500;78;21025;-87
2022/03/14 09:10:12;;;;;;;13.88;9.95;;;;;;;0.62;100.00;102698.06;1793415;78;21550;-87
2022/03/14 09:12:42;;;;;;;13.65;8.45;;;;;;;0.56;100.00;102694.22;1809406;78;21054;-87
2022/03/14 09:15:11;;;;;;;12.23;8.68;;;;;;;0.51;100.00;102694.66;1808512;79;21090;-88
2022/03/14 09:18:00;;;;;;;15.53;10.08;;;;;;;0.47;100.00;102682.67;1816140;78;21257;-88
2022/03/14 09:20:28;;;;;;;11.22;7.78;;;;;;;0.48;100.00;102692.08;1814828;79;21557;-89
2022/03/14 09:22:56;;;;;;;12.00;7.05;;;;;;;0.53;100.00;102685.23;1782821;79;21518;-88
2022/03/14 09:25:25;;;;;;;12.07;7.78;;;;;;;0.56;100.00;102692.94;1759194;79;21795;-87
2022/03/14 09:27:53;;;;;;;12.20;8.10;;;;;;;0.52;96.94;102686.09;1789411;78;21826;-89
2022/03/14 09:30:21;;;;;;;13.10;8.30;;;;;;;0.48;100.00;102684.39;1793638;78;22168;-87
2022/03/14 09:32:48;;;;;;;12.93;8.28;;;;;;;0.44;100.00;102680.13;1782122;78;21117;-87
2022/03/14 09:35:16;;;;;;;14.93;9.45;;;;;;;0.41;100.00;102681.40;1792774;78;21056;-88
2022/03/14 09:37:45;;;;;;;14.68;9.45;;;;;;;0.38;100.00;102680.97;1778041;77;21030;-88
2022/03/14 09:40:17;;;;;;;21.75;13.38;;;;;;;0.38;100.00;102676.26;1816902;77;21017;-88
2022/03/14 09:42:48;;;;;;;14.35;9.90;;;;;;;0.38;100.00;102678.41;1812647;77;21918;-88
2022/03/14 09:45:16;;;;;;;17.00;11.33;;;;;;;0.41;100.00;102672.42;1788645;78;28291;-87
2022/03/14 09:47:47;;;;;;;13.72;8.53;;;;;;;0.41;100.00;102667.30;1788085;78;21102;-90
2022/03/14 09:50:21;;;;;;;16.12;10.00;;;;;;;0.41;100.00;102669.86;1794433;78;21073;-90
2022/03/14 09:52:50;;;;;;;15.40;9.28;;;;;;;0.39;100.00;102666.44;1783373;78;21051;-89
2022/03/14 09:55:19;;;;;;;13.93;8.68;;;;;;;0.39;100.00;102667.72;1786603;78;21936;-90
2022/03/14 09:57:47;;;;;;;14.63;8.98;;;;;;;0.39;100.00;102667.72;1769611;79;21530;-90
2022/03/14 10:00:16;;;;;;;14.15;10.18;;;;;;;0.39;100.00;102665.16;1780347;79;21036;-90
2022/03/14 10:02:44;;;;;;;19.45;13.18;;;;;;;0.43;100.00;102659.19;1773786;78;21047;-90
2022/03/14 10:05:14;;;;;;;14.18;9.08;;;;;;;0.46;100.00;102660.05;1753635;80;21569;-91
2022/03/14 10:07:44;;;;;;;15.43;9.45;;;;;;;0.50;100.00;102660.03;1781209;79;21491;-90
2022/03/14 10:10:14;;;;;;;15.55;9.10;;;;;;;0.51;100.00;102660.45;1779905;79;21038;-89
2022/03/14 10:12:43;;;;;;;15.90;9.30;;;;;;;0.54;100.00;102663.87;1769518;80;22079;-90
2022/03/14 10:15:11;;;;;;;18.75;13.28;;;;;;;0.58;100.00;102658.31;1749885;79;21021;-89
2022/03/14 10:17:41;;;;;;;15.45;10.45;;;;;;;0.58;100.00;102660.87;1799787;78;21026;-89
2022/03/14 10:20:10;;;;;;;14.87;10.10;;;;;;;0.58;100.00;102659.59;1798609;78;22125;-90
2022/03/14 10:22:40;;;;;;;17.17;11.45;;;;;;;0.57;100.00;102652.75;1786506;79;21099;-83
2022/03/14 10:25:13;;;;;;;17.90;11.25;;;;;;;0.59;100.00;102649.36;1755774;80;21605;-88
2022/03/14 10:27:47;;;;;;;17.12;10.45;;;;;;;0.61;100.00;102646.34;1799275;78;22179;-89
2022/03/14 10:30:29;;;;;;;15.30;11.30;;;;;;;0.61;100.00;102645.06;1776913;79;21576;-89
2022/03/14 10:33:12;;;;;;;16.95;11.40;;;;;;;0.56;100.00;102640.37;1771742;79;21221;-89
2022/03/14 10:35:43;;;;;;;18.62;11.75;;;;;;;0.52;100.00;102642.94;1757936;80;21013;-90
2022/03/14 10:38:13;;;;;;;15.78;11.20;;;;;;;0.51;100.00;102639.54;1732900;81;21092;-87
2022/03/14 10:40:44;;;;;;;15.60;10.05;;;;;;;0.52;100.00;102640.37;1742064;80;21531;-86
2022/03/14 10:43:28;;;;;;;14.18;9.45;;;;;;;0.48;100.00;102634.84;1776927;79;21064;-87
2022/03/14 10:45:57;;;;;;;15.60;10.60;;;;;;;0.43;100.00;102630.55;1785506;78;21234;-85
2022/03/14 10:48:41;;;;;;;15.23;10.18;;;;;;;0.44;100.00;102633.55;1787467;78;21066;-86
2022/03/14 10:51:11;;;;;;;19.00;11.85;;;;;;;0.49;100.00;102633.55;1783343;78;21109;-85
2022/03/14 10:53:43;;;;;;;;;;;;;;;0.56;100.00;102633.97;1779618;78;21003;-88
2022/03/14 10:56:12;;;;;;;12.73;8.23;;;;;;;0.61;100.00;102623.27;1796060;78;20173;-88
2022/03/14 10:58:39;;;;;;;14.63;10.43;;;;;;;0.60;100.00;102622.84;1791724;78;22017;-87
2022/03/14 11:01:11;;;;;;;15.80;9.88;;;;;;;0.57;100.00;102625.84;1790971;78;21048;-89
2022/03/14 11:03:58;;;;;;;14.15;9.58;;;;;;;0.56;100.00;102613.45;1791899;78;21071;-88
2022/03/14 11:06:28;;;;;;;14.00;9.70;;;;;;;0.56;100.00;102613.90;1794295;78;21511;-87
2022/03/14 11:08:59;;;;;;;15.50;10.25;;;;;;;0.53;100.00;102619.02;1765732;79;21015;-88
2022/03/14 11:11:26;;;;;;;15.05;10.75;;;;;;;0.51;100.00;102612.62;1786783;78;21495;-88
2022/03/14 11:13:57;;;;;;;16.90;11.28;;;;;;;0.54;100.00;102613.88;1796805;79;21754;-88
2022/03/14 11:16:28;;;;;;;;;;;;;;;0.54;100.00;102607.91;1780694;78;21063;-87